Stations météo

réclame
Mon MeteoGroup
Zinnwald-Georgenfeld, Allemagne (10582): Température de l'air & dewpoint: 12.10.2017 05:00:00 - 18.10.2017 05:00:00 (CEST)Zinnwald-Georgenfeld, Allemagne (10582): Température de l'air 5cm & Température de l'air -5cm: 12.10.2017 05:00:00 - 18.10.2017 05:00:00 (CEST)Zinnwald-Georgenfeld, Allemagne (10582): Température de l'air -20cm & Température de l'air -100cm: 12.10.2017 05:00:00 - 18.10.2017 05:00:00 (CEST)Zinnwald-Georgenfeld, Allemagne (10582): Vitesse du vent & gusts: 12.10.2017 05:00:00 - 18.10.2017 05:00:00 (CEST)Zinnwald-Georgenfeld, Allemagne (10582): Direction du vent: 12.10.2017 05:00:00 - 18.10.2017 05:00:00 (CEST)Zinnwald-Georgenfeld, Allemagne (10582): visibility: 12.10.2017 05:00:00 - 18.10.2017 05:00:00 (CEST)Zinnwald-Georgenfeld, Allemagne (10582): Ensoleillement: 12.10.2017 05:00:00 - 18.10.2017 05:00:00 (CEST)Zinnwald-Georgenfeld, Allemagne (10582): Quantités de précipitations: 12.10.2017 05:00:00 - 18.10.2017 05:00:00 (CEST)
Date & Time tt [°C] td [°C] tt 5cm [°C] tt -5cm [°C] tt -20cm [°C] tt -100cm [°C] ff [km/h] ff [knt] fx [km/h] fx [knt] dd vv [km] sd [min] rr [mm]
18.10.2017 05:00:00 12,5 8,4 5,9 7,0 10,0 10,3 6 4 11 6 SE 19 0 0,0
18.10.2017 04:00:00 12,1 7,4 7,2 7,5 10,2 10,3 10 5 14 8 S 28 0 0,0
18.10.2017 03:00:00 12,3 8,2 8,0 7,9 10,5 10,3 12 7 16 9 S 24 0 0,0
18.10.2017 02:00:00 11,3 9,4 7,8 8,2 10,7 10,3 15 8 16 9 S 8 0 0,0
18.10.2017 01:00:00 11,5 10,2 8,6 8,4 11,0 10,3 13 7 17 9 SSE 6 0 0,0
18.10.2017 00:00:00 11,9 9,1 9,0 8,6 11,4 10,3 15 8 18 10 SSE 15 0 0,0
17.10.2017 23:00:00 11,4 8,8 7,7 8,9 11,7 10,3 14 8 17 9 S 13 0 0,0
17.10.2017 22:00:00 12,3 8,8 8,7 9,5 12,1 10,3 14 8 22 12 S 15 0 0,0
17.10.2017 21:00:00 12,7 8,6 9,5 10,1 12,5 10,3 17 9 21 11 S 22 0 0,0
17.10.2017 20:00:00 12,7 8,5 10,0 10,8 12,8 10,3 16 8 19 10 S 19 0 0,0
17.10.2017 19:00:00 12,2 8,2 9,5 11,8 13,1 10,3 16 8 19 10 S 26 0 0,0
17.10.2017 18:00:00 13,3 9,6 10,8 13,7 13,2 10,3 14 8 18 10 S 21 42 0,0
17.10.2017 17:00:00 16,6 11,7 14,9 16,2 13,0 10,2 10 5 16 9 S 24 60 0,0
17.10.2017 16:00:00 19,7 10,7 19,8 17,5 12,6 10,2 12 6 17 9 S 33 60 0,0
17.10.2017 15:00:00 20,5 10,7 21,5 18,8 12,0 10,2 13 7 18 10 SSE 26 60 0,0
17.10.2017 14:00:00 20,8 11,0 22,0 18,6 11,2 10,2 13 7 19 11 SSE 23 60 0,0
17.10.2017 13:00:00 21,4 4,7 22,8 17,1 10,5 10,2 13 7 22 12 W 32 60 0,0
17.10.2017 12:00:00 20,7 6,2 22,2 15,9 9,9 10,2 12 7 18 10 WSW 44 60 0,0
17.10.2017 11:00:00 19,8 5,7 20,6 13,7 9,5 10,2 9 5 15 8 WSW 57 60 0,0
17.10.2017 10:00:00 16,9 10,2 16,8 11,0 9,4 10,2 8 5 12 7 S 41 60 0,0
17.10.2017 09:00:00 16,2 5,4 14,6 8,6 9,4 10,2 12 7 16 9 WSW 52 19 0,0
17.10.2017 08:00:00 14,0 5,0 7,4 7,7 9,6 10,2 8 4 18 10 SSW 41 0 0,0
17.10.2017 07:00:00 15,6 5,3 10,4 8,0 9,7 10,2 17 9 24 13 SW 35 0 0,0
17.10.2017 06:00:00 15,0 5,4 11,6 8,0 9,9 10,2 19 11 25 13 SW 41 0 0,0
17.10.2017 05:00:00 12,8 5,7 9,2 7,9 10,1 10,2 14 7 17 9 S 39 0 0,0
17.10.2017 04:00:00 13,0 5,7 9,0 8,2 10,3 10,2 14 8 18 10 S 42 0 0,0
17.10.2017 03:00:00 14,0 5,4 9,9 8,4 10,5 10,1 16 8 18 10 S 42 0 0,0
17.10.2017 02:00:00 14,3 5,5 10,1 8,6 10,7 10,1 16 8 17 9 SSW 43 0 0,0
17.10.2017 01:00:00 15,5 5,6 9,8 9,0 11,0 10,1 8 4 12 6 S 40 0 0,0
17.10.2017 00:00:00 16,3 5,7 9,3 9,4 11,2 10,1 8 4 19 10 W 42 0 0,0
16.10.2017 23:00:00 15,1 7,7 11,3 9,7 11,5 10,1 17 9 18 10 W 50 0 0,0
16.10.2017 22:00:00 15,0 8,2 10,5 10,0 11,7 10,1 13 7 17 9 W 50 0 0,0
16.10.2017 21:00:00 14,7 8,4 10,4 10,5 12,0 10,1 13 7 18 10 W 49 0 0,0
16.10.2017 20:00:00 14,7 8,7 11,4 11,0 12,3 10,1 14 8 19 10 W 51 0 0,0
16.10.2017 19:00:00 14,5 8,2 10,3 11,8 12,5 10,1 12 7 21 11 W 52 0 0,0
16.10.2017 18:00:00 16,0 7,8 12,8 13,2 12,6 10,1 16 9 20 11 WSW 61 42 0,0
16.10.2017 17:00:00 17,9 7,3 15,5 15,0 12,4 10,1 14 7 24 13 WSW 70 60 0,0
16.10.2017 16:00:00 18,7 6,3 19,0 16,2 12,1 10,1 14 8 30 16 W 51 60 0,0
16.10.2017 15:00:00 18,7 7,6 19,9 17,3 11,6 10,1 15 8 29 15 W 35 60 0,0
16.10.2017 14:00:00 18,6 8,9 19,9 17,6 10,9 10,1 17 9 27 14 W 35 60 0,0
16.10.2017 13:00:00 17,8 12,2 19,7 17,0 10,1 10,0 9 5 24 13 S 18 60 0,0
16.10.2017 12:00:00 17,5 12,6 18,8 15,8 9,4 10,0 13 7 20 11 S 18 60 0,0
16.10.2017 11:00:00 18,4 11,7 19,0 13,3 9,0 10,0 11 6 23 12 S 49 60 0,0
16.10.2017 10:00:00 17,3 6,8 17,4 10,3 8,8 10,0 14 8 22 12 WSW 37 60 0,0
16.10.2017 09:00:00 15,2 5,9 13,9 7,8 8,9 10,0 15 8 23 12 WSW 34 60 0,0
16.10.2017 08:00:00 12,8 3,9 7,9 6,6 9,1 10,0 16 9 27 15 WSW 66 0 0,0
16.10.2017 07:00:00 12,9 4,5 8,7 6,8 9,3 10,0 19 11 27 14 WSW 66 0 0,0
16.10.2017 06:00:00 12,7 5,4 9,4 7,1 9,5 10,0 24 13 31 17 WSW 70 0 0,0
16.10.2017 05:00:00 12,0 5,8 7,2 7,1 9,7 10,0 19 11 27 15 WSW 70 0 0,0
16.10.2017 04:00:00 11,3 7,2 7,4 7,4 10,0 10,0 21 12 26 14 SW 70 0 0,0
16.10.2017 03:00:00 9,8 9,3 7,3 7,6 10,3 10,0 15 8 17 9 S 8 0 0,0
16.10.2017 02:00:00 10,0 9,5 7,4 8,0 10,6 10,0 13 7 19 10 S 7 0 0,0
16.10.2017 01:00:00 10,7 10,1 8,3 8,5 10,9 10,0 15 8 21 11 S 8 0 0,0
16.10.2017 00:00:00 10,9 10,1 8,7 9,0 11,1 9,9 16 9 23 12 S 13 0 0,0
15.10.2017 23:00:00 11,0 10,3 8,9 9,5 11,4 9,9 18 10 23 12 S 10 0 0,0
15.10.2017 22:00:00 11,4 10,9 9,7 10,0 11,7 9,9 19 11 25 13 S 6 0 0,0
15.10.2017 21:00:00 11,9 11,0 10,1 10,6 12,0 9,9 21 11 26 14 S 10 0 0,0
15.10.2017 20:00:00 12,1 10,9 10,3 11,2 12,3 9,9 20 11 28 15 S 16 0 0,0
15.10.2017 19:00:00 12,6 11,3 10,9 12,0 12,6 9,9 22 12 30 16 S 13 2 0,0
15.10.2017 18:00:00 13,5 11,3 12,0 13,3 12,7 9,9 25 13 29 16 S 22 60 0,0
15.10.2017 17:00:00 14,6 11,7 13,8 15,4 12,5 9,9 21 12 29 15 S 12 60 0,0
15.10.2017 16:00:00 15,8 11,3 17,3 16,6 12,2 9,9 18 10 27 14 S 22 60 0,0
15.10.2017 15:00:00 16,1 11,6 18,2 17,8 11,6 9,9 18 10 26 14 S 21 60 0,0
15.10.2017 14:00:00 16,1 11,2 18,4 17,8 10,9 9,9 18 10 25 13 S 39 60 0,0
15.10.2017 13:00:00 16,5 11,8 18,9 17,1 10,2 9,9 16 8 22 12 S 20 60 0,0
15.10.2017 12:00:00 16,0 12,3 18,0 16,0 9,5 9,9 16 8 22 12 S 24 60 0,0
15.10.2017 11:00:00 16,1 12,6 17,2 13,9 9,1 9,8 11 6 14 7 SSE 29 60 0,0
15.10.2017 10:00:00 14,8 11,9 15,0 10,9 8,9 9,8 4 2 7 4 WSW 44 60 0,0
15.10.2017 09:00:00 12,9 12,2 12,1 8,0 9,0 9,8 5 3 8 5 WSW 44 60 0,0
15.10.2017 08:00:00 11,1 10,9 8,2 7,0 9,2 9,8 11 6 13 7 WSW 32 1 0,0
15.10.2017 07:00:00 10,6 10,1 5,6 7,3 9,4 9,8 5 3 14 7 WSW 25 0 0,0
15.10.2017 06:00:00 11,7 11,1 8,0 7,7 9,6 9,8 12 6 14 7 W 31 0 0,0
15.10.2017 05:00:00 11,3 10,9 8,9 8,1 9,7 9,8 12 7 22 12 WSW 25 0 0,0
15.10.2017 04:00:00 11,4 10,9 9,4 8,4 9,9 9,8 19 10 21 12 W 22 0 0,0
15.10.2017 03:00:00 11,2 10,8 8,5 8,5 10,1 9,8 13 7 20 11 W 19 0 0,0
15.10.2017 02:00:00 11,4 10,9 9,6 8,9 10,3 9,8 16 9 21 11 W 24 0 0,0
15.10.2017 01:00:00 11,5 11,1 10,1 9,1 10,5 9,8 17 9 27 15 W 25 0 0,0
15.10.2017 00:00:00 11,1 10,6 9,6 9,1 10,7 9,8 15 8 21 11 W 21 0 0,0
14.10.2017 23:00:00 11,3 10,8 9,4 9,3 11,0 9,8 14 8 18 10 W 22 0 0,0
14.10.2017 22:00:00 11,6 10,8 9,5 9,9 11,3 9,8 11 6 18 10 W 29 0 0,0
14.10.2017 21:00:00 11,8 10,9 9,4 10,4 11,6 9,8 9 5 21 11 W 31 0 0,0
14.10.2017 20:00:00 12,4 11,2 10,7 11,1 11,8 9,8 13 7 24 13 W 38 0 0,0
14.10.2017 19:00:00 12,6 11,0 10,8 11,9 12,0 9,8 15 8 21 12 W 46 2 0,0
14.10.2017 18:00:00 14,1 10,8 12,3 13,2 12,0 9,8 14 8 24 13 W 70 60 0,0
14.10.2017 17:00:00 15,3 10,8 14,3 15,1 11,8 9,8 14 8 25 14 W 34 60 0,0
14.10.2017 16:00:00 15,8 10,8 17,2 15,8 11,5 9,8 15 8 29 15 W 33 60 0,0
14.10.2017 15:00:00 15,5 10,6 17,2 16,0 11,1 9,8 17 9 30 16 WSW 38 47 0,0
14.10.2017 14:00:00 14,5 10,5 16,4 15,7 10,6 9,8 16 9 30 16 WSW 59 49 0,0
14.10.2017 13:00:00 14,5 10,3 17,1 15,6 10,1 9,8 20 11 37 20 WSW 30 52 0,0
14.10.2017 12:00:00 13,0 9,8 15,0 14,6 9,6 9,8 21 11 37 20 W 32 42 0,0
14.10.2017 11:00:00 12,8 10,0 14,8 14,1 9,1 9,8 18 10 37 20 W 41 58 0,0
14.10.2017 10:00:00 11,8 10,5 14,1 12,2 8,9 9,7 22 12 34 18 W 21 44 0,0
14.10.2017 09:00:00 10,5 10,5 11,1 10,1 8,8 9,7 17 9 26 14 W 8 8 0,0
14.10.2017 08:00:00 9,7 9,7 9,6 9,2 8,7 9,7 11 6 25 14 W 0,3 0 0,0
14.10.2017 07:00:00 9,7 9,7 9,5 9,2 8,7 9,7 16 8 28 15 W 0,5 0 0,0
14.10.2017 06:00:00 9,8 9,8 9,6 9,1 8,7 9,7 13 7 28 15 W 1,7 0 0,0
14.10.2017 05:00:00 9,7 9,7 9,4 8,9 8,6 9,7 13 7 26 14 WNW 4,7 0 0,0
14.10.2017 04:00:00 9,5 9,5 9,1 8,7 8,6 9,7 11 6 20 11 WNW 6 0 0,0
14.10.2017 03:00:00 9,5 9,5 9,2 8,7 8,6 9,7 11 6 24 13 WNW 6 0 0,0
14.10.2017 02:00:00 9,3 9,3 9,0 8,7 8,6 9,7 13 7 29 16 WNW 5 0 0,0
14.10.2017 01:00:00 9,3 9,3 9,0 8,6 8,6 9,7 17 9 37 20 NW 4,7 0 0,0
14.10.2017 00:00:00 9,3 9,2 8,9 8,1 8,7 9,7 23 12 41 22 WNW 8 0 0,0
13.10.2017 23:00:00 9,0 8,7 8,1 7,5 8,9 9,7 18 10 34 18 WNW 14 0 0,0
13.10.2017 22:00:00 8,8 8,2 7,7 7,6 9,1 9,7 17 9 31 17 WNW 16 0 0,0
13.10.2017 21:00:00 8,7 8,2 7,7 7,8 9,4 9,7 17 9 31 17 WNW 14 0 0,0
13.10.2017 20:00:00 8,8 8,1 7,7 8,2 9,6 9,7 15 8 29 15 WNW 18 0 0,0
13.10.2017 19:00:00 9,2 7,7 7,9 9,0 9,8 9,7 12 6 19 10 W 31 0 0,0
13.10.2017 18:00:00 10,0 7,5 8,8 10,2 9,8 9,7 14 8 30 16 W 49 22 0,0
13.10.2017 17:00:00 11,0 7,5 11,0 11,7 9,7 9,7 14 8 37 20 WNW 70 10 0,0
13.10.2017 16:00:00 11,1 7,0 11,5 12,1 9,4 9,7 17 9 35 19 WNW 62 12 0,0
13.10.2017 15:00:00 11,4 7,7 11,8 12,9 9,1 9,7 19 11 39 21 WNW 56 20 0,0
13.10.2017 14:00:00 11,4 7,3 11,7 13,2 8,6 9,7 16 8 45 24 WNW 47 31 0,0
13.10.2017 13:00:00 11,3 7,5 12,2 12,8 8,0 9,7 20 11 41 22 W 55 30 0,0
13.10.2017 12:00:00 10,7 6,9 11,8 11,7 7,5 9,7 15 8 41 22 WNW 45 47 0,0
13.10.2017 11:00:00 10,0 6,9 11,8 10,2 7,2 9,7 21 11 46 25 WNW 29 60 0,0
13.10.2017 10:00:00 8,9 6,7 9,9 8,2 7,0 9,7 24 13 41 22 WNW 31 59 0,0
13.10.2017 09:00:00 7,6 6,5 7,6 6,4 7,0 9,7 21 11 36 20 WNW 32 30 0,0
13.10.2017 08:00:00 6,7 5,9 6,1 5,3 7,1 9,7 19 11 37 20 WNW 28 0 0,0
13.10.2017 07:00:00 6,5 5,2 5,7 5,2 7,3 9,7 22 12 41 22 WNW 28 0 0,0
13.10.2017 06:00:00 6,6 5,3 5,6 5,3 7,4 9,7 24 13 45 25 WNW 32 0 0,0
13.10.2017 05:00:00 6,4 5,2 5,5 5,5 7,5 9,7 23 13 42 23 WNW 27 0 0,0
13.10.2017 04:00:00 6,4 5,4 5,9 5,8 7,7 9,7 24 13 49 26 WNW 24 0 0,0
13.10.2017 03:00:00 6,1 5,0 5,2 5,6 7,9 9,7 25 14 44 24 WNW 19 0 0,0
13.10.2017 02:00:00 6,5 5,1 5,6 5,8 8,1 9,7 24 13 46 25 WNW 43 0 0,0
13.10.2017 01:00:00 6,8 5,0 5,8 6,2 8,3 9,7 27 15 49 26 WNW 46 0 0,0
13.10.2017 00:00:00 7,3 5,2 6,5 6,5 8,5 9,7 26 14 48 26 WNW 60 0 0,0
12.10.2017 23:00:00 7,5 5,3 6,7 6,8 8,8 9,7 26 14 50 27 WNW 44 0 0,0
12.10.2017 22:00:00 7,8 5,4 7,1 7,1 9,0 9,7 26 14 50 27 WNW 49 0 0,0
12.10.2017 21:00:00 7,9 5,4 7,0 7,5 9,3 9,7 18 10 34 18 WNW 53 0 0,0
12.10.2017 20:00:00 8,1 5,8 7,1 8,0 9,5 9,7 17 9 34 18 WNW 50 0 0,0
12.10.2017 19:00:00 9,0 6,8 8,2 9,1 9,6 9,7 15 8 30 16 WNW 41 0 0,0
12.10.2017 18:00:00 10,1 7,5 9,6 10,1 9,6 9,7 13 7 41 22 WNW 45 3 0,0
12.10.2017 17:00:00 11,4 6,6 11,0 11,2 9,5 9,7 20 11 48 26 WNW 64 31 0,0
12.10.2017 16:00:00 12,3 6,2 12,6 11,9 9,3 9,7 24 13 50 27 W 55 30 0,0
12.10.2017 15:00:00 12,4 8,0 12,7 12,6 8,9 9,7 23 12 61 33 W 64 30 0,0
12.10.2017 14:00:00 12,7 7,8 14,5 12,1 8,6 9,7 31 17 61 33 W 58 21 0,0
12.10.2017 13:00:00 11,4 8,8 11,5 11,2 8,3 9,7 27 15 52 28 W 63 3 0,0
12.10.2017 12:00:00 10,7 9,5 10,6 10,4 8,1 9,7 24 13 42 23 WSW 70 0 0,0
12.10.2017 11:00:00 10,3 9,4 9,8 9,9 7,9 9,7 21 11 43 23 WSW 54 3 0,0
12.10.2017 10:00:00 9,8 9,5 9,5 8,8 7,7 9,7 23 12 45 25 WSW 26 0 0,4
12.10.2017 09:00:00 10,5 8,6 10,4 8,1 7,7 9,6 26 14 40 22 WSW 70 19 0,0
12.10.2017 08:00:00 9,3 7,7 7,8 6,6 7,8 9,6 27 15 42 23 WSW 68 1 0,0
12.10.2017 07:00:00 9,2 7,6 7,6 6,7 7,8 9,6 24 13 42 23 WSW 68 0 0,0
12.10.2017 06:00:00 9,2 7,7 7,7 6,8 7,9 9,6 29 15 41 22 WSW 64 0 0,0
12.10.2017 05:00:00 9,0 7,8 7,8 6,9 8,1 9,6 23 12 43 23 WSW 62 0 0,0

tt = Température de l'air
td = dewpoint
tt 5cm = Température de l'air 5cm
tt -5cm = Température de l'air -5cm
tt -20cm = Température de l'air -20cm
tt -100cm = Température de l'air -100cm
ff = Vitesse du vent
fx = gusts
dd = Direction du vent
vv = visibility
sd = Ensoleillement
rr = Quantités de précipitations

stations d'obs. à proximité